createdAt,value
2017-11-04T00:01:58.038Z,28.90
2017-11-04T00:04:59.517Z,33.43
2017-11-04T00:08:00.960Z,33.00
2017-11-04T00:11:02.457Z,30.37
2017-11-04T00:14:03.865Z,33.10
2017-11-04T00:17:05.277Z,35.50
2017-11-04T00:20:07.469Z,31.00
2017-11-04T00:23:08.955Z,31.03
2017-11-04T00:26:10.350Z,32.10
2017-11-04T00:29:12.538Z,27.60
2017-11-04T00:32:13.951Z,30.30
2017-11-04T00:35:15.432Z,28.77
2017-11-04T00:38:16.932Z,31.93
2017-11-04T00:41:18.365Z,32.10
2017-11-04T00:44:19.803Z,26.67
2017-11-04T00:47:21.282Z,33.80
2017-11-04T00:50:22.709Z,35.27
2017-11-04T00:53:24.116Z,32.20
2017-11-04T00:56:25.587Z,28.80
2017-11-04T00:59:27.754Z,39.27
2017-11-04T01:02:29.876Z,32.07
2017-11-04T01:05:31.314Z,39.00
2017-11-04T01:08:32.727Z,28.50
2017-11-04T01:11:34.911Z,32.30
2017-11-04T01:14:37.167Z,28.73
2017-11-04T01:17:39.369Z,30.70
2017-11-04T01:20:40.880Z,27.47
2017-11-04T01:23:42.335Z,29.00
2017-11-04T01:26:43.790Z,29.47
2017-11-04T01:29:45.224Z,27.33
2017-11-04T01:32:46.679Z,33.97
2017-11-04T01:35:48.200Z,32.10
2017-11-04T01:38:49.720Z,27.57
2017-11-04T01:41:51.942Z,33.00
2017-11-04T01:44:54.102Z,34.80
2017-11-04T01:47:56.127Z,44.67
2017-11-04T01:50:58.020Z,27.93
2017-11-04T01:53:59.491Z,31.43
2017-11-04T01:57:01.416Z,29.70
2017-11-04T02:00:02.947Z,28.60
2017-11-04T02:03:04.383Z,28.00
2017-11-04T02:06:05.892Z,29.00
2017-11-04T02:09:07.418Z,30.77
2017-11-04T02:12:09.616Z,25.10
2017-11-04T02:15:11.187Z,35.97
2017-11-04T02:18:12.641Z,41.43
2017-11-04T02:21:14.249Z,34.87
2017-11-04T02:24:16.399Z,32.47
2017-11-04T02:27:17.845Z,31.00
2017-11-04T02:30:19.293Z,26.10
2017-11-04T02:33:20.783Z,34.63
2017-11-04T02:36:22.267Z,34.03
2017-11-04T02:39:23.726Z,26.37
2017-11-04T02:42:25.161Z,29.80
2017-11-04T02:45:26.562Z,28.37
2017-11-04T02:48:28.020Z,24.03
2017-11-04T02:51:29.403Z,21.37
2017-11-04T02:54:30.868Z,26.20
2017-11-04T02:57:32.304Z,26.73
2017-11-04T03:00:34.497Z,27.10
2017-11-04T03:03:35.886Z,27.00
2017-11-04T03:06:37.295Z,26.87
2017-11-04T03:09:38.760Z,30.30
2017-11-04T03:12:40.193Z,27.93
2017-11-04T03:15:41.619Z,29.60
2017-11-04T03:18:43.075Z,24.67
2017-11-04T03:21:44.593Z,33.13
2017-11-04T03:24:46.055Z,23.10
2017-11-04T03:27:47.526Z,26.50
2017-11-04T03:30:49.753Z,28.40
2017-11-04T03:33:51.166Z,28.70
2017-11-04T03:36:53.382Z,25.93
2017-11-04T03:39:54.803Z,24.73
2017-11-04T03:42:56.200Z,34.90
2017-11-04T03:45:57.602Z,28.27
2017-11-04T03:48:59.005Z,34.43
2017-11-04T03:52:00.392Z,38.40
2017-11-04T03:55:02.659Z,30.63
2017-11-04T03:58:04.897Z,34.40
2017-11-04T04:01:07.096Z,29.83
2017-11-04T04:04:09.256Z,34.40
2017-11-04T04:07:10.665Z,31.33
2017-11-04T04:10:12.102Z,35.87
2017-11-04T04:13:13.484Z,43.23
2017-11-04T04:16:14.920Z,34.40
2017-11-04T04:19:16.336Z,35.80
2017-11-04T04:22:18.517Z,36.97
2017-11-04T04:25:19.988Z,37.03
2017-11-04T04:28:21.384Z,35.37
2017-11-04T04:31:22.897Z,38.47
2017-11-04T04:34:24.329Z,33.93
2017-11-04T04:37:25.835Z,28.50
2017-11-04T04:40:27.349Z,30.90
2017-11-04T04:43:28.820Z,33.83
2017-11-04T04:46:30.287Z,36.87
2017-11-04T04:49:31.750Z,45.10
2017-11-04T04:52:33.208Z,37.27
2017-11-04T04:55:34.639Z,34.87
2017-11-04T04:58:36.115Z,39.50
2017-11-04T05:01:37.474Z,37.50
2017-11-04T05:04:39.659Z,36.20
2017-11-04T05:07:41.139Z,35.43
2017-11-04T05:10:42.584Z,33.90
2017-11-04T05:13:44.032Z,40.80
2017-11-04T05:16:45.472Z,37.13
2017-11-04T05:19:46.856Z,41.47
2017-11-04T05:22:51.197Z,37.90
2017-11-04T05:25:52.636Z,38.17
2017-11-04T05:28:54.171Z,31.87
2017-11-04T05:31:55.564Z,39.80
2017-11-04T05:34:57.017Z,31.03
2017-11-04T05:37:58.478Z,44.83
2017-11-04T05:41:00.671Z,37.20
2017-11-04T05:44:02.108Z,42.47
2017-11-04T05:47:03.545Z,37.90
2017-11-04T05:50:04.993Z,44.93
2017-11-04T05:53:06.379Z,48.03
2017-11-04T05:56:11.433Z,38.80
2017-11-04T05:59:12.875Z,45.57
2017-11-04T06:02:14.353Z,37.37
2017-11-04T06:05:15.789Z,40.07
2017-11-04T06:08:17.263Z,39.03
2017-11-04T06:11:18.670Z,37.83
2017-11-04T06:14:20.840Z,44.20
2017-11-04T06:17:23.015Z,36.53
2017-11-04T06:20:25.247Z,43.30
2017-11-04T06:23:26.730Z,38.40
2017-11-04T06:26:28.879Z,38.10
2017-11-04T06:29:30.344Z,40.13
2017-11-04T06:32:32.524Z,45.30
2017-11-04T06:35:34.736Z,39.47
2017-11-04T06:38:36.141Z,44.20
2017-11-04T06:41:38.363Z,46.97
2017-11-04T06:44:39.798Z,40.03
2017-11-04T06:47:41.199Z,37.17
2017-11-04T06:50:42.701Z,46.67
2017-11-04T06:53:44.106Z,54.00
2017-11-04T06:56:45.553Z,37.70
2017-11-04T06:59:47.031Z,44.60
2017-11-04T07:02:49.218Z,46.87
2017-11-04T07:05:50.705Z,45.90
2017-11-04T07:08:52.171Z,41.10
2017-11-04T07:11:53.641Z,46.17
2017-11-04T07:14:55.098Z,43.07
2017-11-04T07:17:56.592Z,42.07
2017-11-04T07:20:58.013Z,45.43
2017-11-04T07:24:00.227Z,40.53
2017-11-04T07:27:01.707Z,42.67
2017-11-04T07:30:03.264Z,46.87
2017-11-04T07:33:04.776Z,47.07
2017-11-04T07:36:06.279Z,37.67
2017-11-04T07:39:07.851Z,45.70
2017-11-04T07:42:10.101Z,47.73
2017-11-04T07:48:19.875Z,43.17
2017-11-04T07:51:22.194Z,50.20
2017-11-04T07:54:23.706Z,47.80
2017-11-04T07:57:25.224Z,42.03
2017-11-04T08:00:26.698Z,47.73
2017-11-04T08:03:28.150Z,51.70
2017-11-04T08:06:29.631Z,45.30
2017-11-04T08:09:31.843Z,52.60
2017-11-04T08:12:33.354Z,45.10
2017-11-04T08:15:35.574Z,50.00
2017-11-04T08:18:37.109Z,50.57
2017-11-04T08:21:38.692Z,45.80
2017-11-04T08:24:40.263Z,54.40
2017-11-04T08:27:41.973Z,57.03
2017-11-04T08:30:44.210Z,44.77
2017-11-04T08:33:47.520Z,110.30
2017-11-04T08:36:49.766Z,60.03
2017-11-04T08:39:52.027Z,53.63
2017-11-04T08:42:53.598Z,51.63
2017-11-04T08:45:55.079Z,46.97
2017-11-04T08:48:57.557Z,51.93
2017-11-04T08:51:59.938Z,55.00
2017-11-04T08:55:01.557Z,51.80
2017-11-04T08:58:03.210Z,49.53
2017-11-04T09:01:04.725Z,52.93
2017-11-04T09:04:06.234Z,47.80
2017-11-04T09:07:07.780Z,49.17
2017-11-04T09:10:09.342Z,46.70
2017-11-04T09:13:10.855Z,44.23
2017-11-04T09:16:12.367Z,46.00
2017-11-04T09:19:14.624Z,44.87
2017-11-04T09:22:16.881Z,45.43
2017-11-04T09:25:18.417Z,44.17
2017-11-04T09:28:19.928Z,50.63
2017-11-04T09:31:21.438Z,40.43
2017-11-04T09:34:22.909Z,46.13
2017-11-04T09:37:24.394Z,43.27
2017-11-04T09:40:26.669Z,47.60
2017-11-04T09:43:28.157Z,46.70
2017-11-04T09:46:29.627Z,45.53
2017-11-04T09:49:31.185Z,48.47
2017-11-04T09:52:33.433Z,46.50
2017-11-04T09:55:34.961Z,50.33
2017-11-04T09:58:36.503Z,48.00
2017-11-04T10:01:38.749Z,43.40
2017-11-04T10:04:40.299Z,51.33
2017-11-04T10:07:41.744Z,47.40
2017-11-04T10:10:43.200Z,47.50
2017-11-04T10:13:44.704Z,43.37
2017-11-04T10:16:46.306Z,43.30
2017-11-04T10:19:47.790Z,44.03
2017-11-04T10:22:49.302Z,52.30
2017-11-04T10:25:51.599Z,49.13
2017-11-04T10:28:53.091Z,38.43
2017-11-04T10:31:54.624Z,48.10
2017-11-04T10:34:56.895Z,49.37
2017-11-04T10:37:59.162Z,42.80
2017-11-04T10:41:00.714Z,46.53
2017-11-04T10:44:02.224Z,40.47
2017-11-04T10:47:03.765Z,36.63
2017-11-04T10:50:05.273Z,44.00
2017-11-04T10:53:07.670Z,43.03
2017-11-04T10:56:09.344Z,39.20
2017-11-04T10:59:10.917Z,45.40
2017-11-04T11:02:12.582Z,49.27
2017-11-04T11:05:14.157Z,35.87
2017-11-04T11:08:15.674Z,39.20
2017-11-04T11:11:17.172Z,45.67
2017-11-04T11:14:18.731Z,39.50
2017-11-04T11:17:20.236Z,33.33
2017-11-04T11:20:21.775Z,34.77
2017-11-04T11:23:23.309Z,34.17
2017-11-04T11:26:25.487Z,33.33
2017-11-04T11:29:27.082Z,33.53
2017-11-04T11:32:28.549Z,31.07
2017-11-04T11:35:30.078Z,36.13
2017-11-04T11:38:31.543Z,36.60
2017-11-04T11:41:33.036Z,34.20
2017-11-04T11:44:34.536Z,29.30
2017-11-04T11:47:35.973Z,28.70
2017-11-04T11:50:37.499Z,33.80
2017-11-04T11:53:38.988Z,25.73
2017-11-04T11:56:40.554Z,31.67
2017-11-04T11:59:42.110Z,31.13
2017-11-04T12:02:43.585Z,31.03
2017-11-04T12:05:45.046Z,29.77
2017-11-04T12:08:46.553Z,27.60
2017-11-04T12:11:48.071Z,24.47
2017-11-04T12:14:50.348Z,32.13
2017-11-04T12:17:52.642Z,20.47
2017-11-04T12:20:54.145Z,30.77
2017-11-04T12:23:55.685Z,21.47
2017-11-04T12:26:57.176Z,23.03
2017-11-04T12:29:59.403Z,20.27
2017-11-04T12:33:00.861Z,19.70
2017-11-04T12:36:02.364Z,24.90
2017-11-04T12:39:04.605Z,23.87
2017-11-04T12:42:06.096Z,27.40
2017-11-04T12:45:08.344Z,21.60
2017-11-04T12:48:09.863Z,23.20
2017-11-04T12:51:11.353Z,30.30
2017-11-04T12:54:12.889Z,22.47
2017-11-04T12:57:14.435Z,22.60
2017-11-04T13:00:16.015Z,36.03
2017-11-04T13:03:18.318Z,28.67
2017-11-04T13:06:19.845Z,23.10
2017-11-04T13:09:21.371Z,22.43
2017-11-04T13:12:22.907Z,22.80
2017-11-04T13:15:24.399Z,26.57
2017-11-04T13:18:25.977Z,24.80
2017-11-04T13:21:28.282Z,22.67
2017-11-04T13:24:29.862Z,28.43
2017-11-04T13:27:31.412Z,25.40
2017-11-04T13:30:32.971Z,24.07
2017-11-04T13:33:34.512Z,27.30
2017-11-04T13:36:36.016Z,23.23
2017-11-04T13:39:38.300Z,23.10
2017-11-04T13:42:40.566Z,21.00
2017-11-04T13:45:42.842Z,23.60
2017-11-04T13:48:45.108Z,23.13
2017-11-04T13:51:47.418Z,27.50
2017-11-04T13:54:48.969Z,29.00
2017-11-04T13:57:50.494Z,20.97
2017-11-04T14:00:52.728Z,26.83
2017-11-04T14:03:54.276Z,19.97
2017-11-04T14:06:55.810Z,23.90
2017-11-04T14:09:57.355Z,19.77
2017-11-04T14:12:58.835Z,25.47
2017-11-04T14:16:00.346Z,22.23
2017-11-04T14:19:01.872Z,21.87
2017-11-04T14:22:03.356Z,23.93
2017-11-04T14:25:04.880Z,22.47
2017-11-04T14:28:07.114Z,26.50
2017-11-04T14:31:08.629Z,19.50
2017-11-04T14:34:10.134Z,25.77
2017-11-04T14:37:11.643Z,21.57
2017-11-04T14:40:13.222Z,21.27
2017-11-04T14:43:14.735Z,23.83
2017-11-04T14:46:17.010Z,20.10
2017-11-04T14:49:19.267Z,21.30
2017-11-04T14:52:21.542Z,22.17
2017-11-04T14:55:23.859Z,24.87
2017-11-04T14:58:25.358Z,19.53
2017-11-04T15:01:26.864Z,15.53
2017-11-04T15:04:28.350Z,21.03
2017-11-04T15:07:29.903Z,17.87
2017-11-04T15:10:31.373Z,16.97
2017-11-04T15:13:33.638Z,18.57
2017-11-04T15:16:35.136Z,13.97
2017-11-04T15:19:36.602Z,17.43
2017-11-04T15:22:38.097Z,18.70
2017-11-04T15:25:39.577Z,20.80
2017-11-04T15:28:41.842Z,15.70
2017-11-04T15:31:44.064Z,15.37
2017-11-04T15:34:45.604Z,17.13
2017-11-04T15:37:47.065Z,17.70
2017-11-04T15:40:48.596Z,14.07
2017-11-04T15:43:50.150Z,18.30
2017-11-04T15:46:51.735Z,7.60
2017-11-04T15:49:53.237Z,14.90
2017-11-04T15:52:55.502Z,14.77
2017-11-04T15:55:57.107Z,9.70
2017-11-04T15:58:58.715Z,11.60
2017-11-04T16:02:01.042Z,12.40
2017-11-04T16:05:02.596Z,12.87
2017-11-04T16:08:04.134Z,12.00
2017-11-04T16:11:05.675Z,14.70
2017-11-04T16:14:07.915Z,15.60
2017-11-04T16:17:09.587Z,11.00
2017-11-04T16:20:11.829Z,12.23
2017-11-04T16:23:13.409Z,10.17
2017-11-04T16:26:16.683Z,15.17
2017-11-04T16:32:26.985Z,12.00
2017-11-04T16:35:29.554Z,14.80
2017-11-04T16:38:31.200Z,18.53
2017-11-04T16:44:44.092Z,9.63
2017-11-04T16:47:47.496Z,8.50
2017-11-04T16:50:49.875Z,11.90
2017-11-04T16:53:51.940Z,10.50
2017-11-04T16:56:54.913Z,13.67
2017-11-04T16:59:57.352Z,12.60
2017-11-04T17:02:59.641Z,12.83
2017-11-04T17:06:02.224Z,10.53
2017-11-04T17:09:04.195Z,13.30
2017-11-04T17:12:06.493Z,13.43
2017-11-04T17:15:08.081Z,14.00
2017-11-04T17:18:09.532Z,10.30
2017-11-04T17:21:11.068Z,15.13
2017-11-04T17:24:12.615Z,12.70
2017-11-04T17:27:14.249Z,10.37
2017-11-04T17:30:16.830Z,13.60
2017-11-04T17:33:18.384Z,14.60
2017-11-04T17:36:20.683Z,12.17
2017-11-04T17:39:22.630Z,14.47
2017-11-04T17:42:25.118Z,11.27
2017-11-04T17:45:27.237Z,14.43
2017-11-04T17:48:29.177Z,14.27
2017-11-04T17:51:30.820Z,19.20
2017-11-04T17:54:32.397Z,15.50
2017-11-04T17:57:35.052Z,16.90
2017-11-04T18:00:37.064Z,18.73
2017-11-04T18:03:39.495Z,15.30
2017-11-04T18:06:41.284Z,17.97
2017-11-04T18:09:42.775Z,16.10
2017-11-04T18:12:44.342Z,15.90
2017-11-04T18:15:46.957Z,15.30
2017-11-04T18:18:48.825Z,16.60
2017-11-04T18:21:50.617Z,17.23
2017-11-04T18:24:53.444Z,17.80
2017-11-04T18:27:56.046Z,17.50
2017-11-04T18:30:58.005Z,22.17
2017-11-04T18:33:59.553Z,14.90
2017-11-04T18:37:01.900Z,13.67
2017-11-04T18:40:03.644Z,19.90
2017-11-04T18:43:05.521Z,18.63
2017-11-04T18:46:07.234Z,15.03
2017-11-04T18:49:10.845Z,18.33
2017-11-04T18:52:12.702Z,23.13
2017-11-04T18:55:14.792Z,22.33
2017-11-04T18:58:17.426Z,19.63
2017-11-04T19:01:19.955Z,14.07
2017-11-04T19:04:23.302Z,13.47
2017-11-04T19:07:26.051Z,19.83
2017-11-04T19:10:27.713Z,14.87
2017-11-04T19:13:29.282Z,15.13
2017-11-04T19:16:31.117Z,16.43
2017-11-04T19:19:33.563Z,12.97
2017-11-04T19:22:35.045Z,12.70
2017-11-04T19:25:36.600Z,14.70
2017-11-04T19:28:38.293Z,12.30
2017-11-04T19:31:40.975Z,14.83
2017-11-04T19:34:42.829Z,11.30
2017-11-04T19:37:44.403Z,13.00
2017-11-04T19:40:45.992Z,13.60
2017-11-04T19:43:47.488Z,14.50
2017-11-04T19:46:49.744Z,16.07
2017-11-04T19:49:51.501Z,12.87
2017-11-04T19:52:53.320Z,11.57
2017-11-04T19:55:55.623Z,14.63
2017-11-04T19:58:57.710Z,11.30
2017-11-04T20:01:59.298Z,13.27
2017-11-04T20:05:00.844Z,19.43
2017-11-04T20:08:03.420Z,11.53
2017-11-04T20:11:06.112Z,10.90
2017-11-04T20:14:07.799Z,10.13
2017-11-04T20:17:09.508Z,15.83
2017-11-04T20:20:12.283Z,12.87
2017-11-04T20:23:13.935Z,16.27
2017-11-04T20:26:15.636Z,12.97
2017-11-04T20:29:17.176Z,13.53
2017-11-04T20:32:18.909Z,12.27
2017-11-04T20:35:20.564Z,10.27
2017-11-04T20:38:22.121Z,24.50
2017-11-04T20:41:23.811Z,17.00
2017-11-04T20:44:25.592Z,12.33
2017-11-04T20:47:27.158Z,17.80
2017-11-04T20:50:28.745Z,14.60
2017-11-04T20:53:30.605Z,11.60
2017-11-04T20:56:32.307Z,10.13
2017-11-04T20:59:33.931Z,16.30
2017-11-04T21:02:35.761Z,14.03
2017-11-04T21:05:37.364Z,11.23
2017-11-04T21:08:39.001Z,20.20
2017-11-04T21:11:40.539Z,11.93
2017-11-04T21:14:42.879Z,15.87
2017-11-04T21:17:46.266Z,12.47
2017-11-04T21:20:48.362Z,17.10
2017-11-04T21:23:50.014Z,18.83
2017-11-04T21:26:51.729Z,15.00
2017-11-04T21:29:54.011Z,16.47
2017-11-04T21:32:56.256Z,12.90
2017-11-04T21:36:01.749Z,13.50
2017-11-04T21:39:05.017Z,10.93
2017-11-04T21:42:10.664Z,54.60
2017-11-04T21:45:14.145Z,11.37
2017-11-04T21:48:16.415Z,16.50
2017-11-04T21:51:17.959Z,9.53
2017-11-04T21:54:19.433Z,16.53
2017-11-04T21:57:20.895Z,14.53
2017-11-04T22:00:22.376Z,15.07
2017-11-04T22:03:23.907Z,10.70
2017-11-04T22:06:25.428Z,15.77
2017-11-04T22:09:26.866Z,9.90
2017-11-04T22:12:28.338Z,12.30
2017-11-04T22:15:30.397Z,11.47
2017-11-04T22:18:31.881Z,16.90
2017-11-04T22:21:33.323Z,11.30
2017-11-04T22:24:34.936Z,13.23
2017-11-04T22:27:36.466Z,10.20
2017-11-04T22:30:38.697Z,14.93
2017-11-04T22:33:40.178Z,13.23
2017-11-04T22:36:41.741Z,11.50
2017-11-04T22:39:43.208Z,14.47
2017-11-04T22:42:45.420Z,9.10
2017-11-04T22:45:46.832Z,13.57
2017-11-04T22:48:49.008Z,9.30
2017-11-04T22:51:51.768Z,8.10
2017-11-04T22:54:53.149Z,10.80
2017-11-04T22:57:55.377Z,13.67
2017-11-04T23:00:57.389Z,11.43
2017-11-04T23:03:59.520Z,12.73
2017-11-04T23:07:01.066Z,8.60
2017-11-04T23:10:02.540Z,9.53
2017-11-04T23:13:04.000Z,13.60
2017-11-04T23:16:06.624Z,10.93
2017-11-04T23:19:08.049Z,11.40
2017-11-04T23:22:09.467Z,13.23
2017-11-04T23:25:11.127Z,8.10
2017-11-04T23:28:12.592Z,13.10
2017-11-04T23:31:14.789Z,11.43
2017-11-04T23:34:16.492Z,9.93
2017-11-04T23:37:19.236Z,9.17
2017-11-04T23:40:22.084Z,9.37
2017-11-04T23:43:23.493Z,9.20
2017-11-04T23:46:24.899Z,11.60
2017-11-04T23:49:27.078Z,8.60
2017-11-04T23:52:29.229Z,11.73
2017-11-04T23:55:31.363Z,11.57
2017-11-04T23:58:32.834Z,10.10
